This is the latest recevied weather packets stored in our database for station/object F4AMY-13. If no packets are shown the sender has not sent any weather packets the latest 10 day(s).
| Time | Temp. | Humidity | Pressure | Rain* | Wind** | Luminosity | Snow |
|---|---|---|---|---|---|---|---|
| 1777312867 | 20° C | 73% | 1014.7 hPa | 0 mm | 0.89 m/s, ° | 2 W/m² | - |
| 1777312567 | 20° C | 72% | 1014.8 hPa | 0 mm | 1.79 m/s, ° | 4 W/m² | - |
| 1777312267 | 20.56° C | 71% | 1014.7 hPa | 0 mm | 2.68 m/s, ° | 6 W/m² | - |
| 1777311967 | 21.11° C | 70% | 1014.5 hPa | 0 mm | 7.15 m/s, ° | 16 W/m² | - |
| 1777311667 | 21.67° C | 69% | 1014.6 hPa | 0 mm | 8.05 m/s, ° | 18 W/m² | - |
| 1777311367 | 22.22° C | 67% | 1014.7 hPa | 0 mm | 8.94 m/s, ° | 20 W/m² | - |
| 1777311067 | 22.78° C | 66% | 1014.4 hPa | 0 mm | 9.39 m/s, ° | 21 W/m² | - |
| 1777310767 | 23.33° C | 64% | 1014.3 hPa | 0 mm | 10.73 m/s, ° | 24 W/m² | - |
| 1777310467 | 23.89° C | 61% | 1014.5 hPa | 0 mm | 11.62 m/s, ° | 26 W/m² | - |
| 1777310167 | 23.89° C | 59% | 1014.6 hPa | 0 mm | 12.96 m/s, ° | 29 W/m² | - |
| 1777309867 | 24.44° C | 58% | 1014.5 hPa | 0 mm | 20.12 m/s, ° | 45 W/m² | - |
| 1777309567 | 24.44° C | 58% | 1014.8 hPa | 0 mm | 16.09 m/s, ° | 36 W/m² | - |
| 1777309266 | 25° C | 58% | 1014.7 hPa | 0 mm | 17.88 m/s, ° | 40 W/m² | - |
| 1777308966 | 25° C | 57% | 1014.5 hPa | 0 mm | 32.63 m/s, ° | 73 W/m² | - |
| 1777308666 | 25.56° C | 56% | 1014.8 hPa | 0 mm | 109.08 m/s, ° | 244 W/m² | - |
| 1777308366 | 26.11° C | 55% | 1014.7 hPa | 0 mm | 106.84 m/s, ° | 239 W/m² | - |
| 1777308066 | 26.11° C | 54% | 1014.6 hPa | 0 mm | 118.47 m/s, ° | 265 W/m² | - |
| 1777307766 | 26.11° C | 53% | 1014.6 hPa | 0 mm | 122.04 m/s, ° | 273 W/m² | - |
| 1777307466 | 26.67° C | 52% | 1014.7 hPa | 0 mm | 126.07 m/s, ° | 282 W/m² | - |
| 1777307166 | 26.67° C | 51% | 1014.9 hPa | 0 mm | 129.19 m/s, ° | 289 W/m² | - |
| 1777306866 | 26.67° C | 51% | 1014.8 hPa | 0 mm | 131.43 m/s, ° | 294 W/m² | - |
| 1777306566 | 26.67° C | 50% | 1014.9 hPa | 0 mm | 128.75 m/s, ° | 288 W/m² | - |
| 1777306266 | 26.67° C | 50% | 1014.7 hPa | 0 mm | 121.15 m/s, ° | 271 W/m² | - |
| 1777305966 | 26.67° C | 52% | 1015 hPa | 0 mm | 139.03 m/s, ° | 311 W/m² | - |
| 1777305666 | 26.11° C | 52% | 1015 hPa | 0 mm | 147.52 m/s, ° | 330 W/m² | - |
* Rain latest hour (hover to see other rain measurements)
** Current wind speed in m/s (hover to see current wind gust speed)